createdAt,value
2023-04-22T00:00:15.962Z,100.00
2023-04-22T00:03:04.659Z,100.00
2023-04-22T00:05:32.983Z,100.00
2023-04-22T00:08:01.327Z,100.00
2023-04-22T00:10:29.316Z,100.00
2023-04-22T00:12:57.347Z,100.00
2023-04-22T00:15:26.807Z,100.00
2023-04-22T00:17:54.798Z,100.00
2023-04-22T00:20:22.838Z,100.00
2023-04-22T00:22:51.514Z,100.00
2023-04-22T00:25:19.888Z,100.00
2023-04-22T00:27:47.921Z,100.00
2023-04-22T00:30:16.045Z,100.00
2023-04-22T00:32:44.105Z,100.00
2023-04-22T00:35:12.152Z,100.00
2023-04-22T00:37:40.181Z,100.00
2023-04-22T00:40:09.356Z,100.00
2023-04-22T00:42:38.480Z,100.00
2023-04-22T00:45:12.117Z,100.00
2023-04-22T00:47:41.542Z,100.00
2023-04-22T00:50:09.551Z,100.00
2023-04-22T00:52:37.910Z,100.00
2023-04-22T00:55:06.450Z,100.00
2023-04-22T00:57:36.098Z,100.00
2023-04-22T01:00:10.084Z,100.00
2023-04-22T01:02:39.027Z,100.00
2023-04-22T01:05:10.696Z,100.00
2023-04-22T01:07:38.670Z,100.00
2023-04-22T01:10:07.522Z,100.00
2023-04-22T01:12:35.573Z,100.00
2023-04-22T01:15:05.170Z,100.00
2023-04-22T01:17:33.978Z,100.00
2023-04-22T01:20:04.661Z,100.00
2023-04-22T01:22:40.619Z,100.00
2023-04-22T01:25:10.544Z,100.00
2023-04-22T01:27:39.860Z,100.00
2023-04-22T01:30:08.982Z,100.00
2023-04-22T01:32:37.492Z,100.00
2023-04-22T01:35:06.150Z,100.00
2023-04-22T01:37:35.390Z,100.00
2023-04-22T01:40:07.957Z,100.00
2023-04-22T01:42:36.471Z,100.00
2023-04-22T01:45:05.168Z,100.00
2023-04-22T01:47:33.436Z,100.00
2023-04-22T01:50:01.440Z,100.00
2023-04-22T01:52:30.627Z,100.00
2023-04-22T01:54:58.926Z,100.00
2023-04-22T01:57:26.859Z,100.00
2023-04-22T01:59:55.056Z,100.00
2023-04-22T02:02:23.763Z,100.00
2023-04-22T02:04:52.528Z,100.00
2023-04-22T02:07:20.795Z,100.00
2023-04-22T02:09:50.880Z,100.00
2023-04-22T02:12:19.127Z,100.00
2023-04-22T02:14:47.243Z,100.00
2023-04-22T02:17:18.056Z,100.00
2023-04-22T02:19:47.035Z,100.00
2023-04-22T02:22:15.073Z,100.00
2023-04-22T02:24:43.286Z,100.00
2023-04-22T02:27:11.283Z,100.00
2023-04-22T02:29:39.488Z,100.00
2023-04-22T02:32:08.484Z,100.00
2023-04-22T02:34:36.645Z,100.00
2023-04-22T02:37:04.631Z,100.00
2023-04-22T02:39:32.712Z,100.00
2023-04-22T02:42:01.747Z,100.00
2023-04-22T02:44:29.785Z,100.00
2023-04-22T02:46:58.041Z,100.00
2023-04-22T02:49:26.083Z,100.00
2023-04-22T02:51:54.323Z,100.00
2023-04-22T02:54:22.285Z,100.00
2023-04-22T02:56:50.589Z,100.00
2023-04-22T02:59:18.527Z,100.00
2023-04-22T03:01:47.348Z,100.00
2023-04-22T03:04:25.763Z,100.00
2023-04-22T03:06:54.508Z,100.00
2023-04-22T03:09:22.691Z,100.00
2023-04-22T03:11:50.715Z,100.00
2023-04-22T03:14:18.670Z,100.00
2023-04-22T03:16:46.702Z,100.00
2023-04-22T03:19:16.671Z,100.00
2023-04-22T03:21:44.675Z,100.00
2023-04-22T03:24:13.155Z,100.00
2023-04-22T03:26:45.612Z,100.00
2023-04-22T03:29:15.135Z,100.00
2023-04-22T03:31:44.759Z,100.00
2023-04-22T03:34:13.015Z,100.00
2023-04-22T03:36:42.403Z,100.00
2023-04-22T03:39:10.597Z,100.00
2023-04-22T03:41:39.698Z,100.00
2023-04-22T03:44:07.664Z,100.00
2023-04-22T03:46:36.185Z,100.00
2023-04-22T03:49:13.918Z,100.00
2023-04-22T03:51:42.031Z,100.00
2023-04-22T03:54:12.760Z,100.00
2023-04-22T03:56:47.297Z,100.00
2023-04-22T03:59:16.355Z,100.00
2023-04-22T04:01:47.511Z,100.00
2023-04-22T04:04:17.463Z,100.00
2023-04-22T04:06:51.793Z,100.00
2023-04-22T04:09:19.804Z,100.00
2023-04-22T04:11:48.436Z,100.00
2023-04-22T04:14:16.566Z,100.00
2023-04-22T04:16:48.810Z,100.00
2023-04-22T04:19:27.900Z,100.00
2023-04-22T04:21:55.820Z,100.00
2023-04-22T04:24:24.557Z,100.00
2023-04-22T04:26:54.836Z,100.00
2023-04-22T04:29:28.473Z,100.00
2023-04-22T04:32:06.642Z,100.00
2023-04-22T04:34:34.914Z,100.00
2023-04-22T04:37:04.031Z,100.00
2023-04-22T04:39:42.566Z,100.00
2023-04-22T04:42:12.460Z,100.00
2023-04-22T04:44:48.821Z,100.00
2023-04-22T04:47:17.751Z,100.00
2023-04-22T04:49:46.358Z,100.00
2023-04-22T04:52:15.363Z,100.00
2023-04-22T04:54:43.484Z,100.00
2023-04-22T04:57:11.661Z,100.00
2023-04-22T04:59:40.153Z,100.00
2023-04-22T05:02:08.901Z,100.00
2023-04-22T05:04:37.306Z,100.00
2023-04-22T05:07:06.207Z,100.00
2023-04-22T05:09:37.882Z,100.00
2023-04-22T05:12:06.617Z,100.00
2023-04-22T05:14:35.452Z,100.00
2023-04-22T05:17:03.859Z,100.00
2023-04-22T05:19:31.931Z,100.00
2023-04-22T05:22:00.116Z,100.00
2023-04-22T05:24:28.368Z,100.00
2023-04-22T05:26:59.336Z,100.00
2023-04-22T05:29:28.864Z,100.00
2023-04-22T05:31:57.407Z,100.00
2023-04-22T05:34:25.991Z,100.00
2023-04-22T05:36:55.172Z,100.00
2023-04-22T05:39:24.300Z,100.00
2023-04-22T05:41:55.251Z,100.00
2023-04-22T05:44:24.699Z,100.00
2023-04-22T05:46:52.910Z,100.00
2023-04-22T05:49:24.258Z,100.00
2023-04-22T05:52:04.652Z,100.00
2023-04-22T05:54:41.303Z,100.00
2023-04-22T05:57:09.958Z,100.00
2023-04-22T05:59:38.872Z,100.00
2023-04-22T06:02:09.301Z,100.00
2023-04-22T06:04:38.141Z,100.00
2023-04-22T06:07:07.312Z,100.00
2023-04-22T06:09:35.633Z,100.00
2023-04-22T06:12:03.725Z,100.00
2023-04-22T06:14:31.885Z,100.00
2023-04-22T06:17:00.546Z,100.00
2023-04-22T06:19:28.981Z,100.00
2023-04-22T06:21:57.215Z,100.00
2023-04-22T06:24:25.293Z,100.00
2023-04-22T06:26:58.320Z,100.00
2023-04-22T06:29:28.417Z,100.00
2023-04-22T06:31:56.653Z,100.00
2023-04-22T06:34:24.954Z,100.00
2023-04-22T06:36:54.920Z,100.00
2023-04-22T06:39:24.010Z,100.00
2023-04-22T06:42:10.996Z,100.00
2023-04-22T06:45:13.625Z,100.00
2023-04-22T06:47:55.116Z,100.00
2023-04-22T06:50:32.246Z,100.00
2023-04-22T06:53:00.968Z,100.00
2023-04-22T06:55:29.097Z,100.00
2023-04-22T06:57:57.176Z,100.00
2023-04-22T07:00:26.016Z,100.00
2023-04-22T07:02:54.556Z,100.00
2023-04-22T07:05:24.531Z,100.00
2023-04-22T07:07:52.558Z,100.00
2023-04-22T07:10:22.023Z,100.00
2023-04-22T07:13:08.823Z,100.00
2023-04-22T07:15:37.224Z,100.00
2023-04-22T07:18:05.856Z,100.00
2023-04-22T07:20:34.084Z,100.00
2023-04-22T07:23:02.771Z,100.00
2023-04-22T07:25:31.107Z,100.00
2023-04-22T07:27:59.052Z,100.00
2023-04-22T07:30:26.965Z,100.00
2023-04-22T07:32:55.791Z,100.00
2023-04-22T07:35:23.778Z,100.00
2023-04-22T07:37:51.830Z,100.00
2023-04-22T07:40:20.044Z,100.00
2023-04-22T07:42:48.179Z,100.00
2023-04-22T07:45:16.530Z,100.00
2023-04-22T07:47:44.582Z,100.00
2023-04-22T07:50:12.657Z,100.00
2023-04-22T07:52:40.792Z,100.00
2023-04-22T07:55:09.219Z,100.00
2023-04-22T07:57:39.166Z,100.00
2023-04-22T08:00:09.018Z,100.00
2023-04-22T08:02:40.122Z,100.00
2023-04-22T08:05:08.359Z,100.00
2023-04-22T08:07:36.542Z,100.00
2023-04-22T08:10:05.452Z,100.00
2023-04-22T08:12:33.323Z,100.00
2023-04-22T08:15:01.314Z,100.00
2023-04-22T08:17:29.448Z,95.36
2023-04-22T08:19:57.401Z,97.91
2023-04-22T08:22:25.597Z,99.99
2023-04-22T08:24:53.748Z,100.00
2023-04-22T08:27:23.129Z,98.60
2023-04-22T08:29:52.075Z,93.37
2023-04-22T08:32:20.908Z,84.55
2023-04-22T08:34:51.812Z,78.34
2023-04-22T08:37:22.295Z,67.63
2023-04-22T08:39:50.269Z,69.39
2023-04-22T08:42:20.496Z,74.26
2023-04-22T08:44:49.087Z,77.63
2023-04-22T08:47:20.685Z,72.67
2023-04-22T08:49:51.131Z,68.00
2023-04-22T08:52:19.599Z,70.55
2023-04-22T08:54:47.898Z,70.10
2023-04-22T08:57:17.435Z,66.43
2023-04-22T08:59:46.791Z,70.05
2023-04-22T09:02:20.495Z,73.06
2023-04-22T09:04:51.810Z,63.56
2023-04-22T09:07:25.492Z,54.54
2023-04-22T09:09:56.044Z,52.99
2023-04-22T09:12:25.906Z,55.19
2023-04-22T09:14:55.811Z,52.32
2023-04-22T09:17:35.437Z,52.05
2023-04-22T09:20:07.231Z,48.87
2023-04-22T09:22:48.031Z,48.64
2023-04-22T09:25:21.129Z,49.50
2023-04-22T09:27:58.457Z,48.42
2023-04-22T09:30:39.497Z,47.46
2023-04-22T09:33:08.074Z,46.48
2023-04-22T09:35:38.601Z,48.76
2023-04-22T09:38:12.199Z,49.20
2023-04-22T09:40:44.391Z,49.70
2023-04-22T09:43:13.126Z,49.14
2023-04-22T09:45:45.385Z,48.23
2023-04-22T09:48:17.343Z,48.02
2023-04-22T09:50:47.822Z,47.00
2023-04-22T09:53:18.988Z,46.83
2023-04-22T09:55:50.120Z,46.70
2023-04-22T09:58:20.886Z,45.53
2023-04-22T10:00:52.092Z,45.68
2023-04-22T10:03:20.627Z,45.01
2023-04-22T10:05:48.856Z,43.56
2023-04-22T10:08:17.440Z,42.84
2023-04-22T10:10:46.025Z,43.70
2023-04-22T10:13:14.216Z,44.13
2023-04-22T10:15:54.371Z,43.58
2023-04-22T10:18:28.511Z,44.67
2023-04-22T10:20:57.817Z,44.54
2023-04-22T10:23:26.213Z,44.34
2023-04-22T10:25:56.154Z,44.79
2023-04-22T10:28:28.725Z,43.52
2023-04-22T10:30:56.979Z,43.44
2023-04-22T10:33:27.702Z,42.10
2023-04-22T10:36:14.571Z,40.61
2023-04-22T10:39:03.238Z,39.38
2023-04-22T10:41:34.470Z,38.82
2023-04-22T10:44:07.908Z,39.03
2023-04-22T10:46:40.433Z,40.50
2023-04-22T10:49:11.779Z,40.99
2023-04-22T10:51:41.448Z,40.71
2023-04-22T10:54:31.538Z,40.44
2023-04-22T10:57:22.905Z,40.18
2023-04-22T11:00:00.748Z,38.93
2023-04-22T11:02:28.886Z,38.86
2023-04-22T11:05:18.660Z,39.35
2023-04-22T11:07:51.087Z,40.41
2023-04-22T11:10:43.030Z,38.88
2023-04-22T11:13:15.613Z,39.28
2023-04-22T11:15:46.998Z,37.83
2023-04-22T11:18:23.594Z,36.18
2023-04-22T11:20:54.100Z,37.49
2023-04-22T11:23:28.780Z,36.84
2023-04-22T11:26:02.024Z,36.92
2023-04-22T11:28:30.574Z,36.38
2023-04-22T11:31:07.167Z,36.07
2023-04-22T11:33:35.778Z,35.69
2023-04-22T11:36:04.497Z,34.62
2023-04-22T11:38:33.408Z,33.96
2023-04-22T11:41:01.640Z,34.41
2023-04-22T11:43:29.880Z,33.16
2023-04-22T11:45:58.276Z,32.61
2023-04-22T11:48:26.402Z,32.48
2023-04-22T11:51:10.235Z,32.44
2023-04-22T11:53:40.337Z,33.37
2023-04-22T11:56:08.416Z,33.64
2023-04-22T11:58:40.777Z,32.97
2023-04-22T12:01:13.990Z,32.95
2023-04-22T12:03:42.504Z,33.10
2023-04-22T12:06:11.246Z,33.55
2023-04-22T12:08:42.699Z,33.46
2023-04-22T12:11:12.257Z,32.88
2023-04-22T12:13:42.226Z,32.35
2023-04-22T12:16:18.717Z,32.43
2023-04-22T12:18:51.845Z,31.98
2023-04-22T12:21:26.018Z,32.36
2023-04-22T12:24:00.344Z,31.22
2023-04-22T12:26:28.588Z,31.54
2023-04-22T12:28:58.637Z,31.90
2023-04-22T12:31:28.089Z,32.44
2023-04-22T12:33:56.713Z,33.36
2023-04-22T12:36:26.365Z,33.36
2023-04-22T12:38:54.541Z,31.91
2023-04-22T12:41:23.832Z,31.42
2023-04-22T12:43:52.879Z,30.71
2023-04-22T12:46:21.348Z,30.57
2023-04-22T12:48:49.414Z,30.90
2023-04-22T12:51:17.381Z,31.23
2023-04-22T12:53:45.576Z,31.49
2023-04-22T12:56:14.015Z,30.68
2023-04-22T12:58:42.331Z,31.82
2023-04-22T13:01:10.834Z,32.40
2023-04-22T13:03:39.008Z,31.79
2023-04-22T13:06:07.134Z,31.00
2023-04-22T13:08:35.060Z,31.27
2023-04-22T13:11:03.899Z,31.86
2023-04-22T13:13:32.532Z,31.44
2023-04-22T13:16:02.231Z,30.98
2023-04-22T13:18:30.338Z,31.14
2023-04-22T13:20:58.755Z,30.96
2023-04-22T13:23:28.065Z,31.28
2023-04-22T13:25:56.919Z,31.72
2023-04-22T13:28:25.859Z,31.98
2023-04-22T13:30:55.708Z,31.43
2023-04-22T13:33:23.712Z,31.19
2023-04-22T13:35:51.613Z,30.80
2023-04-22T13:38:19.759Z,31.17
2023-04-22T13:40:47.807Z,31.24
2023-04-22T13:43:15.780Z,30.92
2023-04-22T13:45:43.928Z,30.78
2023-04-22T13:48:11.897Z,30.75
2023-04-22T13:50:42.765Z,30.14
2023-04-22T13:53:12.018Z,30.57
2023-04-22T13:55:40.400Z,29.97
2023-04-22T13:58:08.952Z,30.42
2023-04-22T14:00:37.003Z,30.75
2023-04-22T14:03:05.526Z,30.24
2023-04-22T14:05:33.864Z,30.77
2023-04-22T14:08:02.436Z,30.96
2023-04-22T14:10:30.840Z,31.43
2023-04-22T14:12:58.954Z,31.25
2023-04-22T14:15:27.263Z,31.38
2023-04-22T14:17:55.561Z,31.11
2023-04-22T14:20:25.465Z,31.88
2023-04-22T14:22:53.473Z,32.00
2023-04-22T14:25:21.651Z,31.78
2023-04-22T14:27:49.722Z,31.78
2023-04-22T14:30:18.369Z,32.00
2023-04-22T14:32:46.867Z,32.02
2023-04-22T14:35:15.088Z,32.60
2023-04-22T14:37:45.253Z,32.95
2023-04-22T14:40:13.871Z,33.12
2023-04-22T14:42:42.045Z,32.70
2023-04-22T14:45:10.529Z,32.70
2023-04-22T14:47:39.001Z,32.93
2023-04-22T14:50:07.602Z,32.73
2023-04-22T14:52:35.739Z,33.08
2023-04-22T14:55:15.439Z,33.49
2023-04-22T14:57:50.214Z,33.21
2023-04-22T15:00:18.848Z,32.70
2023-04-22T15:02:50.386Z,32.94
2023-04-22T15:05:18.654Z,32.31
2023-04-22T15:07:46.831Z,32.93
2023-04-22T15:10:15.557Z,32.85
2023-04-22T15:12:45.188Z,32.69
2023-04-22T15:15:16.105Z,33.17
2023-04-22T15:17:44.879Z,33.08
2023-04-22T15:20:13.648Z,33.38
2023-04-22T15:22:41.832Z,33.43
2023-04-22T15:25:11.566Z,32.79
2023-04-22T15:27:39.827Z,32.68
2023-04-22T15:30:09.265Z,33.62
2023-04-22T15:32:39.317Z,34.09
2023-04-22T15:35:08.682Z,34.02
2023-04-22T15:37:37.047Z,33.75
2023-04-22T15:40:07.790Z,33.47
2023-04-22T15:42:36.126Z,33.15
2023-04-22T15:45:04.821Z,33.12
2023-04-22T15:47:34.976Z,33.21
2023-04-22T15:50:06.824Z,33.43
2023-04-22T15:52:37.524Z,33.53
2023-04-22T15:55:08.000Z,33.88
2023-04-22T15:57:36.434Z,34.37
2023-04-22T16:00:12.293Z,34.79
2023-04-22T16:02:44.895Z,34.66
2023-04-22T16:05:14.848Z,34.99
2023-04-22T16:07:42.961Z,35.22
2023-04-22T16:10:11.205Z,35.37
2023-04-22T16:12:39.284Z,35.49
2023-04-22T16:15:08.919Z,35.87
2023-04-22T16:17:37.947Z,36.44
2023-04-22T16:20:07.653Z,36.92
2023-04-22T16:22:36.439Z,37.20
2023-04-22T16:25:04.776Z,37.47
2023-04-22T16:27:32.745Z,37.84
2023-04-22T16:30:00.861Z,38.32
2023-04-22T16:32:28.862Z,38.69
2023-04-22T16:34:57.086Z,39.29
2023-04-22T16:37:26.803Z,39.90
2023-04-22T16:39:55.369Z,40.28
2023-04-22T16:42:23.614Z,40.73
2023-04-22T16:44:51.735Z,41.77
2023-04-22T16:47:20.142Z,42.52
2023-04-22T16:49:48.277Z,43.51
2023-04-22T16:52:16.811Z,44.92
2023-04-22T16:54:45.261Z,45.85
2023-04-22T16:57:13.485Z,46.34
2023-04-22T16:59:41.926Z,47.70
2023-04-22T17:02:10.645Z,48.33
2023-04-22T17:04:39.114Z,49.56
2023-04-22T17:07:07.331Z,51.00
2023-04-22T17:09:35.377Z,51.21
2023-04-22T17:12:03.811Z,52.20
2023-04-22T17:14:32.320Z,52.93
2023-04-22T17:17:00.593Z,53.93
2023-04-22T17:19:28.757Z,56.40
2023-04-22T17:21:56.948Z,59.10
2023-04-22T17:24:25.544Z,60.43
2023-04-22T17:26:53.614Z,60.95
2023-04-22T17:29:22.003Z,65.74
2023-04-22T17:31:51.160Z,65.48
2023-04-22T17:34:19.408Z,67.27
2023-04-22T17:36:47.459Z,70.34
2023-04-22T17:39:15.667Z,69.46
2023-04-22T17:41:44.357Z,68.92
2023-04-22T17:44:12.472Z,69.68
2023-04-22T17:46:41.844Z,72.38
2023-04-22T17:49:10.153Z,71.59
2023-04-22T17:51:38.284Z,73.49
2023-04-22T17:54:06.405Z,73.29
2023-04-22T17:56:34.536Z,75.15
2023-04-22T17:59:02.548Z,76.29
2023-04-22T18:01:30.882Z,74.35
2023-04-22T18:03:59.420Z,78.48
2023-04-22T18:06:29.333Z,81.47
2023-04-22T18:08:57.309Z,82.82
2023-04-22T18:11:25.972Z,81.40
2023-04-22T18:13:54.876Z,85.43
2023-04-22T18:16:23.290Z,87.25
2023-04-22T18:18:51.416Z,90.51
2023-04-22T18:21:49.642Z,90.04
2023-04-22T18:24:25.438Z,87.42
2023-04-22T18:26:53.708Z,84.25
2023-04-22T18:29:21.768Z,84.54
2023-04-22T18:31:49.780Z,87.84
2023-04-22T18:34:17.867Z,91.54
2023-04-22T18:36:45.898Z,94.38
2023-04-22T18:39:14.025Z,96.09
2023-04-22T18:41:43.334Z,98.59
2023-04-22T18:44:11.530Z,99.82
2023-04-22T18:46:39.695Z,100.00
2023-04-22T18:49:07.726Z,100.00
2023-04-22T18:51:35.878Z,100.00
2023-04-22T18:54:04.208Z,100.00
2023-04-22T18:56:33.343Z,100.00
2023-04-22T18:59:01.674Z,100.00
2023-04-22T19:01:29.820Z,100.00
2023-04-22T19:04:02.062Z,100.00
2023-04-22T19:06:30.423Z,100.00
2023-04-22T19:08:58.519Z,100.00
2023-04-22T19:11:26.783Z,100.00
2023-04-22T19:13:55.235Z,100.00
2023-04-22T19:16:25.657Z,100.00
2023-04-22T19:18:54.636Z,100.00
2023-04-22T19:21:22.726Z,100.00
2023-04-22T19:23:53.030Z,100.00
2023-04-22T19:26:22.106Z,100.00
2023-04-22T19:28:50.046Z,100.00
2023-04-22T19:31:18.201Z,100.00
2023-04-22T19:33:46.208Z,100.00
2023-04-22T19:36:14.513Z,100.00
2023-04-22T19:38:43.444Z,100.00
2023-04-22T19:41:11.854Z,100.00
2023-04-22T19:43:40.797Z,100.00
2023-04-22T19:46:08.846Z,100.00
2023-04-22T19:48:37.524Z,100.00
2023-04-22T19:51:06.300Z,100.00
2023-04-22T19:53:35.684Z,100.00
2023-04-22T19:56:04.047Z,100.00
2023-04-22T19:58:32.907Z,100.00
2023-04-22T20:01:01.227Z,100.00
2023-04-22T20:03:29.868Z,100.00
2023-04-22T20:05:58.314Z,100.00
2023-04-22T20:08:31.008Z,100.00
2023-04-22T20:11:00.771Z,100.00
2023-04-22T20:13:29.342Z,100.00
2023-04-22T20:15:59.090Z,100.00
2023-04-22T20:18:28.216Z,100.00
2023-04-22T20:20:58.603Z,100.00
2023-04-22T20:23:28.529Z,100.00
2023-04-22T20:25:56.836Z,100.00
2023-04-22T20:28:46.212Z,100.00
2023-04-22T20:31:18.456Z,100.00
2023-04-22T20:33:46.916Z,100.00
2023-04-22T20:36:17.044Z,100.00
2023-04-22T20:38:48.938Z,100.00
2023-04-22T20:41:20.931Z,100.00
2023-04-22T20:43:49.106Z,100.00
2023-04-22T20:46:17.595Z,100.00
2023-04-22T20:48:46.343Z,100.00
2023-04-22T20:51:14.801Z,100.00
2023-04-22T20:53:43.111Z,100.00
2023-04-22T20:56:11.297Z,100.00
2023-04-22T20:58:39.411Z,100.00
2023-04-22T21:01:08.925Z,100.00
2023-04-22T21:03:39.683Z,100.00
2023-04-22T21:06:09.198Z,100.00
2023-04-22T21:08:39.456Z,100.00
2023-04-22T21:11:07.738Z,100.00
2023-04-22T21:13:36.213Z,100.00
2023-04-22T21:16:10.178Z,100.00
2023-04-22T21:18:40.834Z,100.00
2023-04-22T21:21:10.122Z,100.00
2023-04-22T21:23:42.160Z,100.00
2023-04-22T21:26:10.803Z,100.00
2023-04-22T21:28:39.290Z,100.00
2023-04-22T21:31:07.510Z,100.00
2023-04-22T21:33:35.470Z,100.00
2023-04-22T21:36:03.606Z,100.00
2023-04-22T21:38:31.575Z,100.00
2023-04-22T21:40:59.602Z,100.00
2023-04-22T21:43:27.528Z,100.00
2023-04-22T21:45:55.450Z,100.00
2023-04-22T21:48:23.544Z,100.00
2023-04-22T21:50:51.863Z,100.00
2023-04-22T21:53:20.882Z,100.00
2023-04-22T21:55:48.812Z,100.00
2023-04-22T21:58:16.830Z,100.00
2023-04-22T22:00:47.445Z,100.00
2023-04-22T22:03:15.784Z,100.00
2023-04-22T22:05:43.888Z,100.00
2023-04-22T22:38:48.178Z,100.00
2023-04-22T22:41:16.169Z,100.00
2023-04-22T22:43:44.208Z,100.00
2023-04-22T22:46:12.221Z,100.00
2023-04-22T22:48:40.261Z,100.00
2023-04-22T22:51:09.613Z,100.00
2023-04-22T22:53:37.484Z,100.00
2023-04-22T22:56:06.913Z,100.00
2023-04-22T22:58:36.534Z,100.00
2023-04-22T23:01:05.307Z,100.00
2023-04-22T23:03:34.256Z,100.00
2023-04-22T23:06:02.545Z,100.00
2023-04-22T23:08:31.129Z,100.00
2023-04-22T23:10:59.138Z,100.00
2023-04-22T23:13:27.184Z,100.00
2023-04-22T23:15:55.186Z,100.00
2023-04-22T23:18:23.417Z,100.00
2023-04-22T23:20:51.990Z,100.00
2023-04-22T23:23:20.073Z,100.00
2023-04-22T23:25:48.332Z,100.00
2023-04-22T23:28:16.825Z,100.00
2023-04-22T23:30:45.117Z,100.00
2023-04-22T23:33:14.993Z,100.00
2023-04-22T23:35:44.648Z,100.00
2023-04-22T23:38:12.707Z,100.00
2023-04-22T23:40:40.770Z,100.00
2023-04-22T23:43:08.938Z,100.00
2023-04-22T23:45:36.860Z,100.00
2023-04-22T23:48:05.069Z,100.00
2023-04-22T23:50:33.281Z,100.00
2023-04-22T23:53:01.175Z,100.00
2023-04-22T23:55:29.536Z,100.00
2023-04-22T23:57:58.178Z,100.00
